Dahlonega, GA

7:03 PM EST on March 04, 2015 (GMT -0500)
Esborn Road | Change Station
CLOSE
Current Station
Personal Weather Station
Location: Dahlonega, GA
Elevation: 1425 ft
Nearby Weather Stations
Active Advisory: Special Statement

Elev 1425 ft 34.57 °N, 83.94 °W | Updated 1 minute ago

Overcast
Overcast
67.4 °F
Feels Like 67.4 °F
N
6.0
Wind Variable Wind from ESE
Gusts 7.0 mph

Today
High -- | Low -- °F
--% Chance of Precip.
Yesterday
High -- | Low -- °F
Precip. -- in
7:01 AM 6:34 PM
Waxing Gibbous, 99% visible
Pressure 29.90 in
Visibility 10.0 miles
Clouds Clear
Dew Point 59 °F
Humidity 75%
Rainfall 0.02 in
Snow Depth Not available.
UV 0 out of 12
Pollen 8.40 out of 12
Air Quality Not available.
Flu Activity Not available.
METAR KGVL 042353Z AUTO 19007G15KT 10SM CLR 21/14 A2992 RMK AO2 SLP123 T02110144 10239 20178 55004

More Conditions Fewer Conditions

Pressure 29.90 in
Visibility 10.0 miles
Clouds Clear
Dew Point 59 °F
Humidity 75%
Rainfall 0.02 in
Snow Depth Not available.
UV 0 out of 12
Pollen 8.40 out of 12
Air Quality Not available.
Flu Activity Not available.
METAR KGVL 042353Z AUTO 19007G15KT 10SM CLR 21/14 A2992 RMK AO2 SLP123 T02110144 10239 20178 55004

More Conditions Fewer Conditions

10-Day Weather Forecast

Almanac

Astronomy

Mar. 04, 2015 Rise Set
Actual Time
Civil Twilight
Nautical Twilight
Astronomical Twilight
Moon
Length of Visible Light
Length of Day
Tomorrow will be .
, % of the Moon is Illuminated

Today's Extremes

State Highs State Lows

Community

WunderPhotos

Upload Photos

1,802,605 photos uploaded!

WunderBlogs® & News

Nearby

Air Quality

  Air Quality AQ Index Pollutant
Not available.

Snow Depth

Station Depth Elevation

Earthquake Activity

City Distance Mag. Time & Date
Minimum magnitude displayed is 2.5.

Coastal Water Temperatures

Place Temperature

Nearby Weather Stations

Special Statement
Statement as of 2:24 PM EST on March 04, 2015

... Rain mixed with sleet Thursday afternoon with patches of black
ice developing Thursday night...

Rain will spread across much of north Georgia Thursday. As colder
air spreads into the state during the afternoon... some of the rain
could be mixed with sleet... especially north of a line from
Carrollton... to Marietta... to Cleveland. No accumulation of sleet
is expected. The rain and sleet mix will diminish from the west Thursday
evening.

However as temperatures drop below freezing Thursday
night... patches of black ice could form creating slick spots on
roads. Patchy black ice will be possible north of a line from
Franklin... to Peachtree City... to Athens.

People traveling across north Georgia Thursday afternoon and
Thursday night should be prepared for slick spots on
roads... mainly after sunset Thursday evening.